Time;durP1;ratioP1;P1;durP2;ratioP2;P2;SDS_P1;SDS_P2;PMS_P1;PMS_P2;Temp;Humidity;BMP_temperature;BMP_pressure;BME280_temperature;BME280_humidity;BME280_pressure;Samples;Min_cycle;Max_cycle;Signal;HPM_P1;HPM_P2
2023/09/20 00:02:13;;;;;;;7.50;5.60;;;;;;;18.57;49.92;99300.92;107306;1257;60399;-40
2023/09/20 00:04:44;;;;;;;8.70;5.60;;;;;;;18.57;50.04;99308.30;107275;1257;60306;-40
2023/09/20 00:07:12;;;;;;;11.20;5.70;;;;;;;18.57;50.21;99305.86;107318;1257;73842;-40
2023/09/20 00:09:40;;;;;;;8.20;5.30;;;;;;;18.57;50.06;99303.19;107249;1261;67578;-40
2023/09/20 00:12:08;;;;;;;11.60;5.80;;;;;;;18.58;50.15;99301.86;107358;1256;72814;-40
2023/09/20 00:14:36;;;;;;;7.70;5.60;;;;;;;18.58;50.13;99301.69;107277;1256;60639;-40
2023/09/20 00:17:04;;;;;;;7.80;5.40;;;;;;;18.58;50.09;99301.83;107248;1256;60502;-40
2023/09/20 00:19:32;;;;;;;9.00;5.10;;;;;;;18.58;50.22;99304.04;107304;1256;73944;-40
2023/09/20 00:22:00;;;;;;;5.90;4.90;;;;;;;18.59;50.14;99302.77;107428;1257;67570;-40
2023/09/20 00:24:27;;;;;;;12.40;5.30;;;;;;;18.60;50.22;99308.48;107393;1257;71402;-40
2023/09/20 00:26:55;;;;;;;8.60;5.90;;;;;;;18.61;50.25;99308.39;107277;1257;60457;-40
2023/09/20 00:29:24;;;;;;;9.10;5.50;;;;;;;18.61;50.39;99309.41;107257;1257;60508;-40
2023/09/20 00:31:52;;;;;;;9.10;5.70;;;;;;;18.59;50.46;99313.11;107365;1257;73837;-40
2023/09/20 00:34:20;;;;;;;8.80;6.00;;;;;;;18.58;50.69;99313.32;107289;1257;67698;-40
2023/09/20 00:36:48;;;;;;;10.50;5.70;;;;;;;18.54;50.95;99322.68;107314;1257;71417;-40
2023/09/20 00:39:17;;;;;;;15.60;5.90;;;;;;;18.51;51.31;99324.27;107241;1256;60329;-40
2023/09/20 00:41:45;;;;;;;9.50;5.10;;;;;;;18.47;53.39;99327.62;107254;1256;60491;-40
2023/09/20 00:44:13;;;;;;;9.60;5.20;;;;;;;18.40;55.33;99332.65;107258;1256;72574;-39
2023/09/20 00:46:42;;;;;;;8.90;5.70;;;;;;;18.31;56.79;99340.46;107292;1257;67826;-40
2023/09/20 00:49:09;;;;;;;9.10;6.10;;;;;;;18.19;58.56;99340.92;107129;1257;72877;-40
2023/09/20 00:51:37;;;;;;;6.80;5.40;;;;;;;18.07;60.06;99345.38;107150;1257;61671;-40
2023/09/20 00:54:05;;;;;;;8.40;5.10;;;;;;;17.98;62.37;99346.83;107255;1260;60435;-40
2023/09/20 00:56:33;;;;;;;9.60;5.70;;;;;;;17.87;64.36;99350.08;107275;1257;73900;-40
2023/09/20 00:59:06;;;;;;;7.30;5.30;;;;;;;17.70;66.56;99364.34;107242;1257;67251;-40
2023/09/20 01:01:34;;;;;;;5.60;5.10;;;;;;;17.48;68.26;99363.11;107292;1257;70709;-40
2023/09/20 01:04:04;;;;;;;11.00;5.50;;;;;;;17.31;69.59;99363.66;107229;1256;61719;-40
2023/09/20 01:06:33;;;;;;;10.00;4.70;;;;;;;17.21;71.03;99368.91;107289;1257;60341;-40
2023/09/20 01:09:00;;;;;;;6.10;4.90;;;;;;;17.11;72.44;99367.02;107120;1262;73898;-41
2023/09/20 01:11:28;;;;;;;10.40;5.10;;;;;;;17.05;73.13;99364.55;107322;1257;66633;-40
2023/09/20 01:13:59;;;;;;;8.30;5.40;;;;;;;17.00;73.79;99361.63;107192;1257;71380;-40
2023/09/20 01:16:27;;;;;;;;;;;;;;;16.97;74.06;99368.06;107295;1257;61221;-40
2023/09/20 01:18:54;;;;;;;8.60;4.80;;;;;;;17.00;74.32;99365.53;107237;1256;60522;-40
2023/09/20 01:21:22;;;;;;;7.80;5.00;;;;;;;17.01;74.43;99362.79;107239;1257;73004;-40
2023/09/20 01:23:50;;;;;;;8.90;4.80;;;;;;;16.99;74.64;99366.40;107227;1257;67369;-41
2023/09/20 01:26:18;;;;;;;9.40;5.60;;;;;;;16.98;75.23;99360.31;107251;1257;72806;-41
2023/09/20 01:28:46;;;;;;;9.20;5.50;;;;;;;16.97;75.60;99359.45;107228;1257;61724;-40
2023/09/20 01:31:13;;;;;;;7.40;4.50;;;;;;;16.99;75.72;99358.19;107260;1257;60388;-40
2023/09/20 01:33:41;;;;;;;6.10;4.50;;;;;;;17.03;75.92;99356.13;107302;1257;72681;-40
2023/09/20 01:36:09;;;;;;;6.60;5.00;;;;;;;17.04;76.43;99359.15;107272;1256;67571;-39
2023/09/20 01:38:37;;;;;;;6.60;5.40;;;;;;;17.01;76.81;99361.84;107257;1256;72784;-39
2023/09/20 01:41:05;;;;;;;6.90;5.10;;;;;;;16.97;77.11;99363.77;107237;1256;60344;-39
2023/09/20 01:43:36;;;;;;;7.70;4.80;;;;;;;16.96;77.27;99360.09;107236;1257;60328;-39
2023/09/20 01:46:04;;;;;;;7.00;4.70;;;;;;;17.01;77.50;99356.05;107256;1260;73906;-39
2023/09/20 01:48:32;;;;;;;8.40;4.60;;;;;;;17.03;77.75;99355.27;107266;1257;67618;-39
2023/09/20 01:51:00;;;;;;;6.70;4.90;;;;;;;17.00;78.05;99352.70;107256;1256;72661;-39
2023/09/20 01:53:27;;;;;;;6.40;4.80;;;;;;;16.97;78.38;99351.55;107300;1257;60421;-40
2023/09/20 01:55:57;;;;;;;5.50;4.50;;;;;;;16.99;78.49;99350.52;107170;1256;60376;-40
2023/09/20 01:58:25;;;;;;;;;;;;;;;17.04;78.43;99348.45;107152;1257;73845;-40
2023/09/20 02:00:52;;;;;;;6.10;4.50;;;;;;;17.07;78.63;99342.02;107311;1256;66603;-40
2023/09/20 02:03:20;;;;;;;6.10;5.10;;;;;;;17.03;78.77;99346.74;107174;1257;72689;-40
2023/09/20 02:05:48;;;;;;;6.40;5.10;;;;;;;17.00;78.93;99344.09;107231;1257;60374;-40
2023/09/20 02:08:17;;;;;;;6.30;4.50;;;;;;;16.97;79.01;99341.38;107222;1257;59843;-39
2023/09/20 02:10:46;;;;;;;5.70;4.10;;;;;;;16.97;79.03;99345.06;107249;1257;73035;-39
2023/09/20 02:13:18;;;;;;;6.40;4.10;;;;;;;17.01;78.99;99340.34;107299;1257;67623;-39
2023/09/20 02:15:47;;;;;;;6.00;4.70;;;;;;;17.07;79.07;99341.63;107187;1257;72728;-39
2023/09/20 02:18:15;;;;;;;6.90;4.60;;;;;;;17.09;78.86;99340.60;107295;1257;60546;-39
2023/09/20 02:20:44;;;;;;;5.80;4.50;;;;;;;17.07;78.83;99340.38;107294;1257;60090;-38
2023/09/20 02:23:15;;;;;;;8.10;4.40;;;;;;;17.10;78.79;99338.23;107239;1257;72561;-39
2023/09/20 02:25:43;;;;;;;5.90;4.40;;;;;;;17.17;78.84;99333.77;107288;1260;66964;-39
2023/09/20 02:28:11;;;;;;;5.40;4.30;;;;;;;17.23;78.57;99331.23;107256;1261;71161;-38
2023/09/20 02:30:41;;;;;;;7.00;5.00;;;;;;;17.24;78.59;99327.54;107179;1258;60466;-38
2023/09/20 02:33:11;;;;;;;7.00;4.90;;;;;;;17.22;78.55;99326.63;107241;1261;60400;-39
2023/09/20 02:35:39;;;;;;;4.70;4.30;;;;;;;17.23;78.62;99325.91;107235;1257;72145;-39
2023/09/20 02:38:09;;;;;;;9.50;4.30;;;;;;;17.28;78.57;99322.18;107241;1257;66793;-39
2023/09/20 02:40:37;;;;;;;;;;;;;;;17.32;78.42;99319.27;107269;1257;73177;-39
2023/09/20 02:43:12;;;;;;;7.20;4.50;;;;;;;17.26;78.49;99306.40;107298;1256;60430;-39
2023/09/20 02:45:39;;;;;;;5.80;5.20;;;;;;;17.32;78.60;99314.33;107266;1257;60565;-39
2023/09/20 02:48:08;;;;;;;6.30;4.50;;;;;;;17.25;78.63;99300.76;107287;1256;72547;-39
2023/09/20 02:50:36;;;;;;;6.70;4.30;;;;;;;17.38;78.53;99308.86;107250;1257;66806;-39
2023/09/20 02:53:06;;;;;;;5.30;4.30;;;;;;;17.44;78.06;99308.25;107248;1257;71830;-39
2023/09/20 02:55:34;;;;;;;5.60;4.40;;;;;;;17.46;78.26;99305.42;107268;1262;60447;-39
2023/09/20 02:58:02;;;;;;;6.50;4.80;;;;;;;17.43;78.39;99302.56;107216;1257;61088;-39
2023/09/20 03:00:31;;;;;;;8.70;4.60;;;;;;;17.41;78.65;99303.13;107111;1255;73871;-39
2023/09/20 03:03:01;;;;;;;8.40;4.60;;;;;;;17.43;78.66;99295.35;107208;1257;66270;-39
2023/09/20 03:05:31;;;;;;;5.90;4.20;;;;;;;17.49;78.57;99300.14;107177;1260;71487;-39
2023/09/20 03:08:01;;;;;;;5.10;4.50;;;;;;;17.54;78.61;99304.55;107099;1259;60551;-39
2023/09/20 03:10:31;;;;;;;6.10;4.30;;;;;;;17.55;78.63;99302.67;107159;1257;60333;-39
2023/09/20 03:12:59;;;;;;;6.40;4.60;;;;;;;17.55;78.49;99304.79;107157;1257;72740;-39
2023/09/20 03:15:28;;;;;;;7.00;4.40;;;;;;;17.55;78.47;99303.14;107226;1257;66643;-40
2023/09/20 03:17:57;;;;;;;5.90;3.80;;;;;;;17.58;78.02;99301.69;107302;1257;71449;-39
2023/09/20 03:20:26;;;;;;;6.10;4.50;;;;;;;17.56;78.13;99300.29;107313;1257;60450;-39
2023/09/20 03:22:59;;;;;;;5.70;4.60;;;;;;;17.56;78.06;99303.67;107260;1257;60336;-39
2023/09/20 03:25:34;;;;;;;6.20;4.80;;;;;;;17.53;78.23;99302.98;107089;1257;73869;-39
2023/09/20 03:28:04;;;;;;;6.40;4.50;;;;;;;17.52;78.17;99301.06;107161;1257;67729;-39
2023/09/20 03:30:33;;;;;;;6.10;4.20;;;;;;;17.53;78.04;99304.24;107314;1259;71414;-39
2023/09/20 03:33:01;;;;;;;5.40;4.40;;;;;;;17.55;77.74;99305.17;107331;1256;60462;-39
2023/09/20 03:35:29;;;;;;;6.10;4.60;;;;;;;17.53;77.65;99304.95;107308;1257;59259;-39
2023/09/20 03:37:57;;;;;;;6.00;5.00;;;;;;;17.50;77.69;99309.69;107292;1257;72618;-39
2023/09/20 03:40:28;;;;;;;8.60;4.50;;;;;;;17.46;77.51;99312.09;107291;1262;66364;-39
2023/09/20 03:42:57;;;;;;;6.80;5.00;;;;;;;17.43;77.48;99310.93;107144;1257;72714;-39
2023/09/20 03:45:28;;;;;;;5.70;4.80;;;;;;;17.44;77.12;99308.17;107253;1257;60355;-39
2023/09/20 03:47:57;;;;;;;6.40;4.40;;;;;;;17.42;76.96;99309.55;107312;1260;60713;-39
2023/09/20 03:50:26;;;;;;;9.00;4.80;;;;;;;17.41;76.88;99305.16;107160;1257;72960;-39
2023/09/20 03:52:53;;;;;;;7.20;5.30;;;;;;;17.37;77.08;99309.64;107267;1257;65990;-39
2023/09/20 03:55:23;;;;;;;7.30;5.10;;;;;;;17.35;77.09;99311.31;107140;1260;71483;-39
2023/09/20 03:57:51;;;;;;;8.20;5.00;;;;;;;17.34;76.91;99309.84;107160;1257;60045;-40
2023/09/20 04:00:27;;;;;;;5.40;4.10;;;;;;;17.36;76.82;99308.89;107325;1257;60280;-40
2023/09/20 04:02:56;;;;;;;10.10;5.10;;;;;;;17.39;76.73;99309.78;107157;1257;73796;-38
2023/09/20 04:05:24;;;;;;;10.70;5.20;;;;;;;17.38;76.57;99310.89;107251;1256;66307;-38
2023/09/20 04:07:56;;;;;;;8.90;5.20;;;;;;;17.34;76.49;99310.15;107274;1257;73010;-39
2023/09/20 04:10:24;;;;;;;8.60;5.00;;;;;;;17.30;76.40;99309.72;107282;1257;61699;-39
2023/09/20 04:12:51;;;;;;;7.00;4.70;;;;;;;17.28;76.37;99310.06;107376;1257;60068;-39
2023/09/20 04:15:19;;;;;;;5.60;4.50;;;;;;;17.27;76.32;99309.36;107275;1262;74301;-39
2023/09/20 04:17:48;;;;;;;6.60;5.20;;;;;;;17.28;76.42;99308.27;107302;1257;66757;-39
2023/09/20 04:20:20;;;;;;;6.50;5.10;;;;;;;17.27;76.56;99306.78;107227;1257;72645;-39
2023/09/20 04:22:50;;;;;;;8.30;5.60;;;;;;;17.26;76.44;99307.18;107304;1261;60810;-39
2023/09/20 04:25:18;;;;;;;9.80;5.20;;;;;;;17.22;75.99;99303.85;107184;1257;60138;-39
2023/09/20 04:27:46;;;;;;;8.90;5.00;;;;;;;17.20;75.92;99303.09;107265;1257;73862;-39
2023/09/20 04:30:14;;;;;;;7.80;5.00;;;;;;;17.23;76.02;99304.94;107244;1261;65446;-38
2023/09/20 04:32:43;;;;;;;5.90;5.00;;;;;;;17.26;75.88;99305.54;107294;1263;71082;-38
2023/09/20 04:35:20;;;;;;;6.60;5.50;;;;;;;17.16;75.74;99292.64;107293;1257;60434;-38
2023/09/20 04:37:48;;;;;;;9.20;5.70;;;;;;;17.20;75.65;99305.42;107416;1257;60451;-39
2023/09/20 04:40:16;;;;;;;6.60;5.10;;;;;;;17.18;75.65;99307.02;107142;1257;73867;-39
2023/09/20 04:42:43;;;;;;;6.10;4.90;;;;;;;17.19;75.65;99310.61;107223;1257;67526;-39
2023/09/20 04:45:14;;;;;;;6.20;5.30;;;;;;;17.23;75.35;99308.94;107250;1257;71557;-39
2023/09/20 04:47:42;;;;;;;;;;;;;;;17.24;75.12;99308.43;107247;1257;60550;-39
2023/09/20 04:50:12;;;;;;;6.50;5.50;;;;;;;17.23;74.97;99307.77;107250;1262;59584;-39
2023/09/20 04:52:41;;;;;;;5.80;5.10;;;;;;;17.19;75.02;99310.74;107276;1257;72597;-39
2023/09/20 04:55:10;;;;;;;6.40;5.20;;;;;;;17.18;75.18;99313.20;107258;1257;66285;-39
2023/09/20 04:57:38;;;;;;;6.20;4.90;;;;;;;17.21;74.87;99310.35;107299;1257;71426;-39
2023/09/20 05:00:08;;;;;;;6.70;5.40;;;;;;;17.24;74.63;99317.84;107121;1262;60463;-39
2023/09/20 05:02:36;;;;;;;8.30;5.60;;;;;;;17.25;74.66;99321.66;107179;1262;59600;-39
2023/09/20 05:05:05;;;;;;;6.90;5.80;;;;;;;17.24;74.63;99324.96;107148;1257;73954;-39
2023/09/20 05:07:34;;;;;;;7.30;5.40;;;;;;;17.23;74.47;99324.66;107009;1257;215804;-39
2023/09/20 05:11:13;;;;;;;5.90;5.10;;;;;;;17.25;74.14;99326.28;104297;1289;599636;-39
2023/09/20 05:13:41;;;;;;;6.80;5.50;;;;;;;17.23;74.09;99325.52;106631;1267;59383;-39
2023/09/20 05:16:09;;;;;;;9.10;5.40;;;;;;;17.24;74.19;99328.86;106573;1271;59310;-39
2023/09/20 05:18:37;;;;;;;7.00;4.80;;;;;;;17.27;74.00;99330.02;106618;1269;71629;-38
2023/09/20 05:21:05;;;;;;;6.90;5.60;;;;;;;17.30;73.68;99330.92;106693;1266;66309;-39
2023/09/20 05:23:35;;;;;;;7.30;5.60;;;;;;;17.31;73.56;99329.52;106656;1267;73005;-39
2023/09/20 05:26:03;;;;;;;6.40;5.50;;;;;;;17.29;73.41;99332.98;106559;1268;59757;-40
2023/09/20 05:28:31;;;;;;;8.40;6.00;;;;;;;17.25;73.55;99337.15;106663;1264;60387;-39
2023/09/20 05:31:00;;;;;;;10.90;5.90;;;;;;;17.25;73.75;99336.77;106853;1264;71037;-39
2023/09/20 05:33:30;;;;;;;6.00;4.80;;;;;;;17.29;73.72;99338.22;106745;1264;67605;-40
2023/09/20 05:35:58;;;;;;;8.60;5.40;;;;;;;17.38;73.78;99339.16;106832;1264;73206;-40
2023/09/20 05:38:26;;;;;;;5.70;5.20;;;;;;;17.44;73.11;99336.30;106683;1269;60112;-40
2023/09/20 05:40:54;;;;;;;7.30;5.50;;;;;;;17.45;72.93;99334.79;106633;1264;60163;-40
2023/09/20 05:43:21;;;;;;;7.80;5.90;;;;;;;17.45;73.04;99339.66;106768;1264;71994;-40
2023/09/20 05:45:49;;;;;;;7.70;5.30;;;;;;;17.46;72.64;99342.08;106674;1264;67556;-40
2023/09/20 05:48:16;;;;;;;6.20;4.70;;;;;;;17.48;72.36;99341.25;106693;1266;72740;-40
2023/09/20 05:50:45;;;;;;;6.70;5.60;;;;;;;17.50;72.23;99339.36;106735;1268;60116;-40
2023/09/20 05:53:14;;;;;;;6.50;5.50;;;;;;;17.49;71.96;99340.23;106676;1263;60080;-37
2023/09/20 05:55:44;;;;;;;6.50;5.60;;;;;;;17.48;72.16;99341.27;106748;1264;73080;-39
2023/09/20 05:58:12;;;;;;;6.40;5.80;;;;;;;17.49;72.22;99347.67;106728;1264;66443;-39
2023/09/20 06:00:39;;;;;;;7.40;5.50;;;;;;;17.49;72.12;99350.49;106729;1267;72636;-40
2023/09/20 06:03:07;;;;;;;12.00;5.30;;;;;;;17.52;72.03;99352.83;106756;1264;61724;-40
2023/09/20 06:05:37;;;;;;;6.80;5.20;;;;;;;17.57;71.85;99350.81;106747;1269;60044;-39
2023/09/20 06:08:09;;;;;;;7.20;5.50;;;;;;;17.59;72.09;99354.58;106711;1264;73065;-39
2023/09/20 06:10:37;;;;;;;9.60;6.20;;;;;;;17.61;71.95;99354.42;106805;1264;67604;-39
2023/09/20 06:13:07;;;;;;;9.00;6.00;;;;;;;17.61;71.54;99356.38;106742;1268;71877;-39
2023/09/20 06:15:36;;;;;;;7.20;5.60;;;;;;;17.58;71.47;99357.22;106796;1264;60765;-39
2023/09/20 06:18:04;;;;;;;7.60;5.40;;;;;;;17.58;71.42;99356.76;106821;1264;59721;-40
2023/09/20 06:20:32;;;;;;;7.90;5.70;;;;;;;17.60;71.47;99357.87;106874;1263;73097;-40
2023/09/20 06:22:59;;;;;;;9.40;5.70;;;;;;;17.61;71.48;99363.27;106645;1263;66624;-39
2023/09/20 06:25:29;;;;;;;9.40;5.90;;;;;;;17.61;71.61;99366.48;106684;1268;71575;-39
2023/09/20 06:27:58;;;;;;;;;;;;;;;17.63;71.55;99365.05;106738;1266;60582;-39
2023/09/20 06:30:25;;;;;;;9.90;6.20;;;;;;;17.61;71.76;99361.85;106991;1261;59801;-39
2023/09/20 06:32:53;;;;;;;7.60;4.80;;;;;;;17.69;71.92;99367.41;106950;1260;73061;-40
2023/09/20 06:35:22;;;;;;;8.20;5.20;;;;;;;17.78;71.61;99369.75;106870;1265;66307;-40
2023/09/20 06:37:51;;;;;;;7.50;5.60;;;;;;;17.86;71.49;99370.62;106941;1260;72696;-41
2023/09/20 06:40:33;;;;;;;8.70;5.50;;;;;;;17.90;71.68;99373.38;106926;1262;59666;-40
2023/09/20 06:43:01;;;;;;;7.50;5.50;;;;;;;17.94;71.20;99372.17;106855;1260;60045;-40
2023/09/20 06:45:29;;;;;;;10.20;5.70;;;;;;;17.97;71.06;99375.81;106986;1260;71311;-40
2023/09/20 06:47:57;;;;;;;6.70;4.80;;;;;;;18.02;70.54;99378.98;106912;1265;67657;-41
2023/09/20 06:50:24;;;;;;;7.10;5.80;;;;;;;18.04;70.09;99379.12;106929;1263;72700;-40
2023/09/20 06:52:54;;;;;;;11.80;6.20;;;;;;;18.02;69.87;99385.33;106898;1261;60131;-40
2023/09/20 06:55:21;;;;;;;9.20;5.60;;;;;;;17.98;70.23;99384.04;107016;1260;60050;-40
2023/09/20 06:57:49;;;;;;;8.50;6.00;;;;;;;17.98;70.64;99383.49;106980;1260;73037;-40
2023/09/20 07:00:26;;;;;;;10.10;5.70;;;;;;;18.00;70.80;99387.01;106917;1263;67916;-40
2023/09/20 07:02:56;;;;;;;5.90;4.90;;;;;;;18.05;70.35;99389.52;106885;1261;71729;-39
2023/09/20 07:05:28;;;;;;;7.40;5.70;;;;;;;18.09;70.13;99391.84;106973;1260;60091;-39
2023/09/20 07:07:58;;;;;;;11.50;6.30;;;;;;;18.11;70.24;99396.52;106861;1261;60036;-39
2023/09/20 07:10:31;;;;;;;8.80;6.30;;;;;;;18.11;70.06;99401.68;106988;1260;73025;-39
2023/09/20 07:13:00;;;;;;;8.40;5.80;;;;;;;18.10;70.08;99400.21;106989;1260;67602;-40
2023/09/20 07:15:28;;;;;;;11.20;5.80;;;;;;;18.10;69.89;99400.93;106864;1263;72726;-39
2023/09/20 07:17:59;;;;;;;10.00;5.60;;;;;;;18.13;70.02;99404.57;106905;1260;61715;-39
2023/09/20 07:20:31;;;;;;;8.00;5.60;;;;;;;18.17;70.01;99406.95;106931;1261;60076;-39
2023/09/20 07:22:59;;;;;;;8.40;6.10;;;;;;;18.18;70.11;99413.21;106888;1265;73073;-40
2023/09/20 07:25:27;;;;;;;9.70;6.10;;;;;;;18.15;70.09;99413.17;106923;1260;65685;-39
2023/09/20 07:27:58;;;;;;;9.90;6.00;;;;;;;18.12;70.33;99414.69;106955;1260;71455;-40
2023/09/20 07:30:31;;;;;;;9.20;6.20;;;;;;;18.11;70.34;99419.88;106901;1260;62132;-39
2023/09/20 07:33:02;;;;;;;6.90;5.40;;;;;;;18.10;70.54;99420.59;106967;1260;60568;-40
2023/09/20 07:35:39;;;;;;;12.60;5.80;;;;;;;18.12;70.66;99424.81;106891;1260;72186;-39
2023/09/20 07:38:20;;;;;;;8.90;6.20;;;;;;;18.10;71.08;99426.24;106922;1260;68214;-39
2023/09/20 07:40:50;;;;;;;8.30;5.80;;;;;;;18.08;71.22;99431.05;106862;1264;72716;-40
2023/09/20 07:43:18;;;;;;;8.00;5.80;;;;;;;18.05;71.35;99428.65;106881;1260;61837;-39
2023/09/20 07:45:56;;;;;;;9.60;5.80;;;;;;;18.05;71.47;99430.52;106832;1261;59618;-40
2023/09/20 07:48:30;;;;;;;9.10;6.30;;;;;;;18.06;71.55;99431.92;106759;1260;71066;-40
2023/09/20 07:50:59;;;;;;;9.40;6.20;;;;;;;18.06;71.79;99432.16;106837;1265;67609;-39
2023/09/20 07:53:28;;;;;;;8.80;6.20;;;;;;;18.04;72.01;99433.83;106919;1265;72702;-39
2023/09/20 07:56:00;;;;;;;9.50;6.30;;;;;;;18.06;72.28;99434.36;106982;1261;61813;-39
2023/09/20 07:58:28;;;;;;;7.80;5.50;;;;;;;18.12;72.43;99436.88;106906;1265;60349;-40
2023/09/20 08:00:56;;;;;;;8.80;5.90;;;;;;;18.17;72.28;99440.58;106898;1265;71012;-39
2023/09/20 08:03:24;;;;;;;10.40;5.90;;;;;;;18.17;72.32;99439.09;106919;1260;66655;-39
2023/09/20 08:05:54;;;;;;;7.90;6.50;;;;;;;18.16;72.48;99438.79;106980;1262;72689;-40
2023/09/20 08:08:21;;;;;;;8.00;6.00;;;;;;;18.19;72.78;99443.16;106938;1261;61806;-39
2023/09/20 08:10:49;;;;;;;11.60;5.60;;;;;;;18.24;72.45;99441.23;106936;1260;59615;-40
2023/09/20 08:13:36;;;;;;;8.20;5.60;;;;;;;18.28;72.46;99444.79;106915;1260;73147;-40
2023/09/20 08:16:09;;;;;;;9.00;6.00;;;;;;;18.29;72.29;99445.56;106908;1265;67875;-40
2023/09/20 08:21:27;;;;;;;11.70;6.40;;;;;;;18.23;72.28;99446.41;106909;1260;59609;-36
2023/09/20 09:00:25;;;;;;;9.90;7.20;;;;;;;18.37;72.61;99443.59;106999;1260;75160;-39
2023/09/20 09:02:58;;;;;;;55.30;13.20;;;;;;;18.33;72.97;99442.14;106938;1260;59634;-39
2023/09/20 09:05:27;;;;;;;11.10;7.40;;;;;;;18.33;72.64;99442.63;106939;1260;60337;-39
2023/09/20 09:07:56;;;;;;;11.10;6.40;;;;;;;18.37;72.17;99443.73;106989;1260;73043;-39
2023/09/20 09:10:25;;;;;;;11.60;7.00;;;;;;;18.45;72.15;99437.77;106948;1260;66281;-39
2023/09/20 09:12:53;;;;;;;28.00;8.40;;;;;;;18.52;72.17;99433.92;106930;1260;72667;-39
2023/09/20 09:15:21;;;;;;;15.90;7.70;;;;;;;18.61;71.71;99437.68;106936;1260;60176;-39
2023/09/20 09:17:48;;;;;;;14.50;7.70;;;;;;;18.70;71.31;99434.11;106900;1260;59596;-39
2023/09/20 09:20:19;;;;;;;10.20;7.00;;;;;;;18.86;70.60;99437.20;106926;1260;73152;-39
2023/09/20 09:22:48;;;;;;;23.50;7.90;;;;;;;19.05;70.03;99442.35;107023;1260;66980;-39
2023/09/20 09:25:20;;;;;;;15.40;7.10;;;;;;;19.20;69.86;99443.33;106928;1260;72398;-39
2023/09/20 09:27:48;;;;;;;18.20;8.70;;;;;;;19.34;69.65;99440.52;106893;1260;59595;-39
2023/09/20 09:30:16;;;;;;;26.90;9.50;;;;;;;19.47;69.04;99446.69;106922;1260;60826;-39
2023/09/20 09:32:47;;;;;;;14.50;8.30;;;;;;;19.60;68.22;99445.88;106923;1261;73900;-39
2023/09/20 09:35:18;;;;;;;10.50;7.20;;;;;;;19.76;67.93;99445.45;106926;1260;68900;-39
2023/09/20 09:38:04;;;;;;;22.30;8.30;;;;;;;20.00;67.47;99449.13;106985;1261;71481;-39
2023/09/20 09:40:32;;;;;;;8.20;5.80;;;;;;;20.15;66.64;99448.45;106925;1260;60524;-39
2023/09/20 09:43:15;;;;;;;7.30;6.50;;;;;;;20.22;66.15;99453.57;106975;1261;60458;-39
2023/09/20 09:45:49;;;;;;;7.40;6.70;;;;;;;20.25;65.84;99450.29;106896;1261;73043;-39
2023/09/20 09:48:17;;;;;;;7.80;6.60;;;;;;;20.27;65.98;99450.73;106914;1260;67589;-39
2023/09/20 09:50:46;;;;;;;9.10;6.50;;;;;;;20.35;66.08;99451.46;106898;1263;71378;-39
2023/09/20 09:53:14;;;;;;;8.90;6.90;;;;;;;20.46;65.77;99449.21;107183;1256;60662;-39
2023/09/20 09:55:43;;;;;;;9.70;6.20;;;;;;;20.53;65.56;99450.73;107241;1256;60354;-39
2023/09/20 09:58:11;;;;;;;8.60;6.90;;;;;;;20.59;65.81;99451.48;107211;1256;72591;-39
2023/09/20 10:00:40;;;;;;;7.80;6.90;;;;;;;20.68;65.87;99447.98;107155;1256;67598;-39
2023/09/20 10:03:15;;;;;;;9.30;7.00;;;;;;;20.76;65.61;99452.86;107200;1256;74709;-39
2023/09/20 10:05:44;;;;;;;9.90;6.70;;;;;;;20.85;65.13;99450.95;107138;1256;63746;-39
2023/09/20 10:08:13;;;;;;;10.70;6.60;;;;;;;20.93;64.93;99449.83;107211;1256;60943;-39
2023/09/20 10:10:41;;;;;;;9.40;6.50;;;;;;;20.94;64.47;99449.09;107209;1257;73875;-39
2023/09/20 10:13:14;;;;;;;8.30;7.20;;;;;;;20.91;64.40;99451.91;107224;1256;69756;-38
2023/09/20 10:15:43;;;;;;;9.60;7.50;;;;;;;20.87;64.32;99452.09;107157;1257;72854;-39
2023/09/20 10:18:11;;;;;;;13.50;7.10;;;;;;;20.85;64.72;99447.33;107077;1263;60662;-39
2023/09/20 10:21:04;;;;;;;8.50;6.60;;;;;;;20.88;65.40;99448.98;107059;1256;60245;-40
2023/09/20 10:23:37;;;;;;;7.90;6.00;;;;;;;21.04;65.17;99448.46;107233;1257;74897;-40
2023/09/20 10:26:15;;;;;;;7.80;6.60;;;;;;;21.20;64.85;99444.98;107236;1256;66960;-39
2023/09/20 10:28:44;;;;;;;9.40;7.50;;;;;;;21.36;64.72;99440.85;107208;1256;72719;-39
2023/09/20 10:31:16;;;;;;;8.80;7.10;;;;;;;21.47;63.64;99442.55;107248;1256;60538;-39
2023/09/20 10:33:51;;;;;;;10.70;7.50;;;;;;;21.54;63.76;99441.58;107201;1256;60530;-39
2023/09/20 10:36:24;;;;;;;9.40;7.40;;;;;;;21.64;63.41;99444.24;107196;1256;73323;-39
2023/09/20 10:39:29;;;;;;;14.40;8.20;;;;;;;21.71;63.01;99445.27;107228;1256;66298;-39
2023/09/20 10:42:07;;;;;;;9.40;6.90;;;;;;;21.77;63.08;99439.91;107203;1256;72863;-39
2023/09/20 10:44:38;;;;;;;10.40;7.50;;;;;;;21.86;62.74;99442.52;107218;1257;60506;-39
2023/09/20 10:47:12;;;;;;;9.90;7.50;;;;;;;21.90;62.35;99448.33;107234;1256;60387;-39
2023/09/20 10:49:50;;;;;;;8.80;7.00;;;;;;;21.81;62.03;99447.92;107216;1257;72634;-39
2023/09/20 10:52:38;;;;;;;8.90;7.60;;;;;;;21.66;62.78;99446.98;107216;1256;70128;-39
2023/09/20 10:55:18;;;;;;;9.00;8.10;;;;;;;21.53;63.27;99441.92;107108;1257;72696;-39
2023/09/20 10:57:46;;;;;;;8.70;7.70;;;;;;;21.45;63.71;99442.45;107201;1256;60521;-39
2023/09/20 11:00:14;;;;;;;8.30;7.00;;;;;;;21.40;64.15;99442.89;107236;1256;60428;-39
2023/09/20 11:02:42;;;;;;;8.70;7.20;;;;;;;21.38;64.38;99446.78;107224;1256;73880;-38
2023/09/20 11:05:14;;;;;;;7.70;6.90;;;;;;;21.37;64.55;99444.20;107229;1260;67949;-39
2023/09/20 11:07:42;;;;;;;8.00;7.10;;;;;;;21.34;64.88;99446.02;107217;1256;72697;-39
2023/09/20 11:10:13;;;;;;;8.40;7.50;;;;;;;21.29;65.13;99446.75;107202;1260;60586;-40
2023/09/20 11:12:44;;;;;;;12.90;7.90;;;;;;;21.24;65.36;99444.58;107229;1256;59287;-39
2023/09/20 11:15:14;;;;;;;11.20;8.30;;;;;;;21.19;65.54;99446.73;107218;1256;73885;-39
2023/09/20 11:17:42;;;;;;;9.10;7.30;;;;;;;21.15;65.79;99444.00;107208;1256;67569;-39
2023/09/20 11:20:13;;;;;;;9.10;7.30;;;;;;;21.15;66.12;99446.54;107227;1260;71867;-39
2023/09/20 11:22:44;;;;;;;12.00;8.10;;;;;;;21.15;65.99;99445.96;107245;1256;60786;-39
2023/09/20 11:25:12;;;;;;;10.40;8.30;;;;;;;21.13;65.88;99441.12;107160;1256;60588;-39
2023/09/20 11:27:39;;;;;;;8.70;7.80;;;;;;;21.09;66.50;99445.52;107244;1256;74251;-39
2023/09/20 11:30:08;;;;;;;13.30;8.00;;;;;;;21.05;66.79;99446.17;107234;1257;70519;-39
2023/09/20 11:32:40;;;;;;;8.70;7.80;;;;;;;21.02;66.91;99447.57;107245;1256;74919;-39
2023/09/20 11:35:08;;;;;;;7.80;6.60;;;;;;;21.01;67.03;99449.73;107247;1255;60786;-40
2023/09/20 11:37:36;;;;;;;8.30;6.60;;;;;;;21.04;67.10;99447.36;107330;1256;60447;-40
2023/09/20 11:40:05;;;;;;;10.00;6.10;;;;;;;21.05;66.95;99452.38;107231;1256;73962;-40
2023/09/20 11:42:34;;;;;;;6.70;6.10;;;;;;;21.04;67.23;99450.05;107211;1256;66662;-40
2023/09/20 11:45:03;;;;;;;6.70;6.00;;;;;;;21.04;67.35;99448.33;107278;1256;72957;-40
2023/09/20 11:47:51;;;;;;;6.60;5.00;;;;;;;21.05;67.54;99443.66;107228;1258;62591;-40
2023/09/20 11:50:21;;;;;;;7.00;4.80;;;;;;;21.14;67.57;99442.98;107352;1260;60526;-40
2023/09/20 11:52:49;;;;;;;;;;;;;;;21.24;67.28;99440.80;107258;1256;75415;-40
2023/09/20 11:55:19;;;;;;;8.30;6.80;;;;;;;21.33;67.44;99443.89;107308;1256;66106;-40
2023/09/20 11:57:47;;;;;;;5.10;4.60;;;;;;;21.40;67.11;99445.23;107340;1257;73392;-40
2023/09/20 12:00:20;;;;;;;7.50;4.40;;;;;;;21.46;66.86;99442.64;107336;1256;60456;-40
2023/09/20 12:02:47;;;;;;;4.40;4.00;;;;;;;21.53;66.57;99443.91;107402;1257;60315;-40
2023/09/20 12:05:18;;;;;;;4.10;3.50;;;;;;;21.60;66.49;99440.02;107386;1256;74241;-40
2023/09/20 12:07:58;;;;;;;3.60;3.30;;;;;;;21.70;65.68;99438.20;107356;1256;68157;-40
2023/09/20 12:10:26;;;;;;;4.20;3.80;;;;;;;21.78;65.07;99441.77;107343;1257;72741;-40
2023/09/20 12:12:54;;;;;;;3.80;3.50;;;;;;;21.84;65.00;99439.48;107330;1256;60415;-40
2023/09/20 12:15:23;;;;;;;4.00;3.00;;;;;;;21.87;64.49;99441.56;107222;1256;62246;-40
2023/09/20 12:17:55;;;;;;;4.50;3.20;;;;;;;21.84;64.00;99438.86;107272;1260;76018;-40